<?xml version="1.0" encoding="UTF-8" standalone="no" ?>
<gpx xmlns="http://www.topografix.com/GPX/1/1" xmlns:xsi="http://www.w3.org/2001/XMLSchema-instance" xsi:schemaLocation="http://www.topografix.com/GPX/1/1 http://www.topografix.com/GPX/1/1/gpx.xsd" version="1.1" creator="VisuGPX - https://www.visugpx.com">
  <metadata>
    <name>Stevenson Samedi 17 Septembre</name>
    <desc><![CDATA[Florac - Cassagnas après une journée de pause à Florac
couvert, légère pluie le soir.
]]></desc>
  </metadata>
  <trk>
    <name><![CDATA[ACTIVE LOG111437]]></name>
    <trkseg>
      <trkpt lat="44.29462" lon="3.68392">
        <ele>638.765</ele>
        <time>2011-09-17T09:14:37Z</time>
      </trkpt>
      <trkpt lat="44.29442" lon="3.684">
        <ele>638.997</ele>
        <time>2011-09-17T09:14:47Z</time>
      </trkpt>
      <trkpt lat="44.29433" lon="3.68409">
        <ele>639.589</ele>
        <time>2011-09-17T09:14:57Z</time>
      </trkpt>
      <trkpt lat="44.29422" lon="3.68419">
        <ele>639.425</ele>
        <time>2011-09-17T09:15:07Z</time>
      </trkpt>
      <trkpt lat="44.29413" lon="3.68432">
        <ele>639.748</ele>
        <time>2011-09-17T09:15:17Z</time>
      </trkpt>
      <trkpt lat="44.29409" lon="3.68437">
        <ele>639.904</ele>
        <time>2011-09-17T09:15:27Z</time>
      </trkpt>
      <trkpt lat="44.29397" lon="3.68446">
        <ele>640.033</ele>
        <time>2011-09-17T09:15:37Z</time>
      </trkpt>
      <trkpt lat="44.29384" lon="3.68451">
        <ele>640.395</ele>
        <time>2011-09-17T09:15:47Z</time>
      </trkpt>
      <trkpt lat="44.29373" lon="3.68458">
        <ele>640.752</ele>
        <time>2011-09-17T09:15:57Z</time>
      </trkpt>
      <trkpt lat="44.29361" lon="3.68463">
        <ele>641.058</ele>
        <time>2011-09-17T09:16:07Z</time>
      </trkpt>
      <trkpt lat="44.29351" lon="3.68466">
        <ele>641.394</ele>
        <time>2011-09-17T09:16:17Z</time>
      </trkpt>
      <trkpt lat="44.29339" lon="3.68469">
        <ele>641.677</ele>
        <time>2011-09-17T09:16:27Z</time>
      </trkpt>
      <trkpt lat="44.29325" lon="3.6847">
        <ele>642.107</ele>
        <time>2011-09-17T09:16:37Z</time>
      </trkpt>
      <trkpt lat="44.2931" lon="3.68471">
        <ele>642.469</ele>
        <time>2011-09-17T09:16:47Z</time>
      </trkpt>
      <trkpt lat="44.29296" lon="3.68478">
        <ele>642.826</ele>
        <time>2011-09-17T09:16:57Z</time>
      </trkpt>
      <trkpt lat="44.29287" lon="3.68487">
        <ele>643.014</ele>
        <time>2011-09-17T09:17:07Z</time>
      </trkpt>
      <trkpt lat="44.29277" lon="3.68493">
        <ele>643.659</ele>
        <time>2011-09-17T09:17:17Z</time>
      </trkpt>
      <trkpt lat="44.29263" lon="3.685">
        <ele>643.923</ele>
        <time>2011-09-17T09:17:27Z</time>
      </trkpt>
      <trkpt lat="44.29257" lon="3.68499">
        <ele>643.41</ele>
        <time>2011-09-17T09:17:37Z</time>
      </trkpt>
      <trkpt lat="44.29258" lon="3.68499">
        <ele>643.695</ele>
        <time>2011-09-17T09:17:47Z</time>
      </trkpt>
      <trkpt lat="44.29262" lon="3.68499">
        <ele>643.688</ele>
        <time>2011-09-17T09:17:57Z</time>
      </trkpt>
      <trkpt lat="44.29257" lon="3.68497">
        <ele>643.138</ele>
        <time>2011-09-17T09:18:07Z</time>
      </trkpt>
      <trkpt lat="44.29257" lon="3.68496">
        <ele>643.254</ele>
        <time>2011-09-17T09:18:17Z</time>
      </trkpt>
      <trkpt lat="44.29257" lon="3.68496">
        <ele>643.65</ele>
        <time>2011-09-17T09:18:27Z</time>
      </trkpt>
      <trkpt lat="44.29257" lon="3.68496">
        <ele>643.432</ele>
        <time>2011-09-17T09:18:37Z</time>
      </trkpt>
      <trkpt lat="44.29257" lon="3.68496">
        <ele>643.681</ele>
        <time>2011-09-17T09:18:47Z</time>
      </trkpt>
      <trkpt lat="44.29257" lon="3.68496">
        <ele>643.411</ele>
        <time>2011-09-17T09:18:57Z</time>
      </trkpt>
      <trkpt lat="44.29257" lon="3.68496">
        <ele>643.774</ele>
        <time>2011-09-17T09:19:07Z</time>
      </trkpt>
      <trkpt lat="44.29257" lon="3.68496">
        <ele>644.059</ele>
        <time>2011-09-17T09:19:17Z</time>
      </trkpt>
      <trkpt lat="44.29257" lon="3.68496">
        <ele>643.91</ele>
        <time>2011-09-17T09:19:27Z</time>
      </trkpt>
      <trkpt lat="44.29257" lon="3.68496">
        <ele>643.983</ele>
        <time>2011-09-17T09:19:37Z</time>
      </trkpt>
      <trkpt lat="44.29257" lon="3.68496">
        <ele>644.29</ele>
        <time>2011-09-17T09:19:47Z</time>
      </trkpt>
      <trkpt lat="44.29256" lon="3.68496">
        <ele>644.091</ele>
        <time>2011-09-17T09:19:57Z</time>
      </trkpt>
      <trkpt lat="44.29256" lon="3.68496">
        <ele>644.496</ele>
        <time>2011-09-17T09:20:07Z</time>
      </trkpt>
      <trkpt lat="44.29256" lon="3.68496">
        <ele>644.247</ele>
        <time>2011-09-17T09:20:17Z</time>
      </trkpt>
      <trkpt lat="44.29255" lon="3.68496">
        <ele>644.623</ele>
        <time>2011-09-17T09:20:27Z</time>
      </trkpt>
      <trkpt lat="44.29255" lon="3.68496">
        <ele>644.076</ele>
        <time>2011-09-17T09:20:37Z</time>
      </trkpt>
      <trkpt lat="44.29255" lon="3.68496">
        <ele>644.67</ele>
        <time>2011-09-17T09:20:47Z</time>
      </trkpt>
      <trkpt lat="44.29256" lon="3.68496">
        <ele>645.218</ele>
        <time>2011-09-17T09:20:57Z</time>
      </trkpt>
      <trkpt lat="44.29255" lon="3.68496">
        <ele>645.06</ele>
        <time>2011-09-17T09:21:07Z</time>
      </trkpt>
      <trkpt lat="44.29255" lon="3.68497">
        <ele>645.397</ele>
        <time>2011-09-17T09:21:17Z</time>
      </trkpt>
      <trkpt lat="44.29256" lon="3.68497">
        <ele>645.195</ele>
        <time>2011-09-17T09:21:27Z</time>
      </trkpt>
      <trkpt lat="44.29255" lon="3.68497">
        <ele>645.233</ele>
        <time>2011-09-17T09:21:37Z</time>
      </trkpt>
      <trkpt lat="44.29255" lon="3.68496">
        <ele>645.172</ele>
        <time>2011-09-17T09:21:47Z</time>
      </trkpt>
      <trkpt lat="44.29255" lon="3.68496">
        <ele>645.467</ele>
        <time>2011-09-17T09:21:57Z</time>
      </trkpt>
      <trkpt lat="44.29255" lon="3.68496">
        <ele>645.99</ele>
        <time>2011-09-17T09:22:07Z</time>
      </trkpt>
      <trkpt lat="44.29255" lon="3.68496">
        <ele>645.485</ele>
        <time>2011-09-17T09:22:17Z</time>
      </trkpt>
      <trkpt lat="44.29255" lon="3.68495">
        <ele>645.83</ele>
        <time>2011-09-17T09:22:27Z</time>
      </trkpt>
      <trkpt lat="44.29256" lon="3.68494">
        <ele>645.581</ele>
        <time>2011-09-17T09:22:37Z</time>
      </trkpt>
      <trkpt lat="44.29256" lon="3.68494">
        <ele>645.438</ele>
        <time>2011-09-17T09:22:47Z</time>
      </trkpt>
      <trkpt lat="44.29256" lon="3.68494">
        <ele>645.666</ele>
        <time>2011-09-17T09:22:57Z</time>
      </trkpt>
      <trkpt lat="44.29256" lon="3.68494">
        <ele>645.831</ele>
        <time>2011-09-17T09:23:07Z</time>
      </trkpt>
      <trkpt lat="44.29256" lon="3.68494">
        <ele>645.76</ele>
        <time>2011-09-17T09:23:17Z</time>
      </trkpt>
      <trkpt lat="44.29255" lon="3.68494">
        <ele>645.893</ele>
        <time>2011-09-17T09:23:27Z</time>
      </trkpt>
      <trkpt lat="44.29255" lon="3.68494">
        <ele>646.152</ele>
        <time>2011-09-17T09:23:37Z</time>
      </trkpt>
      <trkpt lat="44.29254" lon="3.68495">
        <ele>645.809</ele>
        <time>2011-09-17T09:23:47Z</time>
      </trkpt>
      <trkpt lat="44.29254" lon="3.68495">
        <ele>646.052</ele>
        <time>2011-09-17T09:23:57Z</time>
      </trkpt>
      <trkpt lat="44.29254" lon="3.68495">
        <ele>646.309</ele>
        <time>2011-09-17T09:24:07Z</time>
      </trkpt>
      <trkpt lat="44.29254" lon="3.68494">
        <ele>646.058</ele>
        <time>2011-09-17T09:24:17Z</time>
      </trkpt>
      <trkpt lat="44.29255" lon="3.68494">
        <ele>646.194</ele>
        <time>2011-09-17T09:24:27Z</time>
      </trkpt>
      <trkpt lat="44.29255" lon="3.68493">
        <ele>645.991</ele>
        <time>2011-09-17T09:24:37Z</time>
      </trkpt>
      <trkpt lat="44.29254" lon="3.68492">
        <ele>646.198</ele>
        <time>2011-09-17T09:24:47Z</time>
      </trkpt>
      <trkpt lat="44.29254" lon="3.68492">
        <ele>646.477</ele>
        <time>2011-09-17T09:24:57Z</time>
      </trkpt>
      <trkpt lat="44.29254" lon="3.68492">
        <ele>645.909</ele>
        <time>2011-09-17T09:25:07Z</time>
      </trkpt>
      <trkpt lat="44.29254" lon="3.68492">
        <ele>646.428</ele>
        <time>2011-09-17T09:25:17Z</time>
      </trkpt>
      <trkpt lat="44.29254" lon="3.68492">
        <ele>646.457</ele>
        <time>2011-09-17T09:25:27Z</time>
      </trkpt>
      <trkpt lat="44.29254" lon="3.68492">
        <ele>646.615</ele>
        <time>2011-09-17T09:25:37Z</time>
      </trkpt>
      <trkpt lat="44.29254" lon="3.68493">
        <ele>646.856</ele>
        <time>2011-09-17T09:25:47Z</time>
      </trkpt>
      <trkpt lat="44.29254" lon="3.68493">
        <ele>646.885</ele>
        <time>2011-09-17T09:25:57Z</time>
      </trkpt>
      <trkpt lat="44.29254" lon="3.68493">
        <ele>646.862</ele>
        <time>2011-09-17T09:26:07Z</time>
      </trkpt>
      <trkpt lat="44.29254" lon="3.68493">
        <ele>646.369</ele>
        <time>2011-09-17T09:26:17Z</time>
      </trkpt>
      <trkpt lat="44.29254" lon="3.68492">
        <ele>646.659</ele>
        <time>2011-09-17T09:26:27Z</time>
      </trkpt>
      <trkpt lat="44.29254" lon="3.68492">
        <ele>646.93</ele>
        <time>2011-09-17T09:26:37Z</time>
      </trkpt>
      <trkpt lat="44.29254" lon="3.68493">
        <ele>646.916</ele>
        <time>2011-09-17T09:26:47Z</time>
      </trkpt>
      <trkpt lat="44.29253" lon="3.68493">
        <ele>646.813</ele>
        <time>2011-09-17T09:26:57Z</time>
      </trkpt>
      <trkpt lat="44.29254" lon="3.68494">
        <ele>646.57</ele>
        <time>2011-09-17T09:27:07Z</time>
      </trkpt>
      <trkpt lat="44.29254" lon="3.68494">
        <ele>646.967</ele>
        <time>2011-09-17T09:27:17Z</time>
      </trkpt>
      <trkpt lat="44.29254" lon="3.68495">
        <ele>646.761</ele>
        <time>2011-09-17T09:27:27Z</time>
      </trkpt>
      <trkpt lat="44.29253" lon="3.68495">
        <ele>647.101</ele>
        <time>2011-09-17T09:27:37Z</time>
      </trkpt>
      <trkpt lat="44.29254" lon="3.68496">
        <ele>647.102</ele>
        <time>2011-09-17T09:27:47Z</time>
      </trkpt>
      <trkpt lat="44.29254" lon="3.68496">
        <ele>647.153</ele>
        <time>2011-09-17T09:27:57Z</time>
      </trkpt>
      <trkpt lat="44.29254" lon="3.68496">
        <ele>647.177</ele>
        <time>2011-09-17T09:28:07Z</time>
      </trkpt>
      <trkpt lat="44.29254" lon="3.68496">
        <ele>647.246</ele>
        <time>2011-09-17T09:28:17Z</time>
      </trkpt>
      <trkpt lat="44.29254" lon="3.68496">
        <ele>647.063</ele>
        <time>2011-09-17T09:28:27Z</time>
      </trkpt>
      <trkpt lat="44.29254" lon="3.68496">
        <ele>646.937</ele>
        <time>2011-09-17T09:28:37Z</time>
      </trkpt>
      <trkpt lat="44.29254" lon="3.68496">
        <ele>647.008</ele>
        <time>2011-09-17T09:28:47Z</time>
      </trkpt>
      <trkpt lat="44.29255" lon="3.68496">
        <ele>646.944</ele>
        <time>2011-09-17T09:28:57Z</time>
      </trkpt>
      <trkpt lat="44.29255" lon="3.68496">
        <ele>646.96</ele>
        <time>2011-09-17T09:29:07Z</time>
      </trkpt>
      <trkpt lat="44.29254" lon="3.68496">
        <ele>646.965</ele>
        <time>2011-09-17T09:29:17Z</time>
      </trkpt>
      <trkpt lat="44.29254" lon="3.68496">
        <ele>647.121</ele>
        <time>2011-09-17T09:29:27Z</time>
      </trkpt>
      <trkpt lat="44.29253" lon="3.68496">
        <ele>647.289</ele>
        <time>2011-09-17T09:29:37Z</time>
      </trkpt>
      <trkpt lat="44.29252" lon="3.68496">
        <ele>647.18</ele>
        <time>2011-09-17T09:29:47Z</time>
      </trkpt>
      <trkpt lat="44.29252" lon="3.68496">
        <ele>647.294</ele>
        <time>2011-09-17T09:29:57Z</time>
      </trkpt>
      <trkpt lat="44.29252" lon="3.68495">
        <ele>647.383</ele>
        <time>2011-09-17T09:30:07Z</time>
      </trkpt>
      <trkpt lat="44.29253" lon="3.68495">
        <ele>647.497</ele>
        <time>2011-09-17T09:30:17Z</time>
      </trkpt>
      <trkpt lat="44.29253" lon="3.68495">
        <ele>647.629</ele>
        <time>2011-09-17T09:30:27Z</time>
      </trkpt>
      <trkpt lat="44.29252" lon="3.68495">
        <ele>647.993</ele>
        <time>2011-09-17T09:30:37Z</time>
      </trkpt>
      <trkpt lat="44.29253" lon="3.68495">
        <ele>647.825</ele>
        <time>2011-09-17T09:30:47Z</time>
      </trkpt>
      <trkpt lat="44.29254" lon="3.68495">
        <ele>648.271</ele>
        <time>2011-09-17T09:30:57Z</time>
      </trkpt>
      <trkpt lat="44.29254" lon="3.68494">
        <ele>648.018</ele>
        <time>2011-09-17T09:31:07Z</time>
      </trkpt>
      <trkpt lat="44.29255" lon="3.68494">
        <ele>648.029</ele>
        <time>2011-09-17T09:31:17Z</time>
      </trkpt>
      <trkpt lat="44.29255" lon="3.68494">
        <ele>647.999</ele>
        <time>2011-09-17T09:31:27Z</time>
      </trkpt>
      <trkpt lat="44.29254" lon="3.68494">
        <ele>648.457</ele>
        <time>2011-09-17T09:31:37Z</time>
      </trkpt>
      <trkpt lat="44.29254" lon="3.68495">
        <ele>647.796</ele>
        <time>2011-09-17T09:31:47Z</time>
      </trkpt>
      <trkpt lat="44.29254" lon="3.68496">
        <ele>648.478</ele>
        <time>2011-09-17T09:31:57Z</time>
      </trkpt>
      <trkpt lat="44.29254" lon="3.68497">
        <ele>648.398</ele>
        <time>2011-09-17T09:32:07Z</time>
      </trkpt>
      <trkpt lat="44.29254" lon="3.68497">
        <ele>648.464</ele>
        <time>2011-09-17T09:32:17Z</time>
      </trkpt>
      <trkpt lat="44.29254" lon="3.68497">
        <ele>648.195</ele>
        <time>2011-09-17T09:32:27Z</time>
      </trkpt>
      <trkpt lat="44.29253" lon="3.68497">
        <ele>648.058</ele>
        <time>2011-09-17T09:32:37Z</time>
      </trkpt>
      <trkpt lat="44.29252" lon="3.68496">
        <ele>648.398</ele>
        <time>2011-09-17T09:32:47Z</time>
      </trkpt>
      <trkpt lat="44.29252" lon="3.68495">
        <ele>648.528</ele>
        <time>2011-09-17T09:32:57Z</time>
      </trkpt>
      <trkpt lat="44.29251" lon="3.68493">
        <ele>648.591</ele>
        <time>2011-09-17T09:33:07Z</time>
      </trkpt>
      <trkpt lat="44.29251" lon="3.68491">
        <ele>648.388</ele>
        <time>2011-09-17T09:33:17Z</time>
      </trkpt>
      <trkpt lat="44.29251" lon="3.68491">
        <ele>648.671</ele>
        <time>2011-09-17T09:33:27Z</time>
      </trkpt>
      <trkpt lat="44.29251" lon="3.68491">
        <ele>649.4</ele>
        <time>2011-09-17T09:33:37Z</time>
      </trkpt>
      <trkpt lat="44.29251" lon="3.68491">
        <ele>648.982</ele>
        <time>2011-09-17T09:33:47Z</time>
      </trkpt>
      <trkpt lat="44.29252" lon="3.6849">
        <ele>649.06</ele>
        <time>2011-09-17T09:33:57Z</time>
      </trkpt>
      <trkpt lat="44.29252" lon="3.68491">
        <ele>649.018</ele>
        <time>2011-09-17T09:34:07Z</time>
      </trkpt>
      <trkpt lat="44.29253" lon="3.685">
        <ele>649.047</ele>
        <time>2011-09-17T09:34:17Z</time>
      </trkpt>
      <trkpt lat="44.29252" lon="3.68511">
        <ele>649.658</ele>
        <time>2011-09-17T09:34:27Z</time>
      </trkpt>
      <trkpt lat="44.29248" lon="3.68525">
        <ele>649.855</ele>
        <time>2011-09-17T09:34:37Z</time>
      </trkpt>
      <trkpt lat="44.29246" lon="3.68538">
        <ele>650.244</ele>
        <time>2011-09-17T09:34:47Z</time>
      </trkpt>
      <trkpt lat="44.29242" lon="3.68548">
        <ele>650.232</ele>
        <time>2011-09-17T09:34:57Z</time>
      </trkpt>
      <trkpt lat="44.29239" lon="3.6856">
        <ele>650.647</ele>
        <time>2011-09-17T09:35:07Z</time>
      </trkpt>
      <trkpt lat="44.29237" lon="3.68575">
        <ele>650.739</ele>
        <time>2011-09-17T09:35:17Z</time>
      </trkpt>
      <trkpt lat="44.29235" lon="3.68592">
        <ele>650.792</ele>
        <time>2011-09-17T09:35:27Z</time>
      </trkpt>
      <trkpt lat="44.29234" lon="3.68609">
        <ele>651.322</ele>
        <time>2011-09-17T09:35:37Z</time>
      </trkpt>
      <trkpt lat="44.29234" lon="3.68624">
        <ele>651.82</ele>
        <time>2011-09-17T09:35:47Z</time>
      </trkpt>
      <trkpt lat="44.29236" lon="3.6864">
        <ele>651.833</ele>
        <time>2011-09-17T09:35:57Z</time>
      </trkpt>
      <trkpt lat="44.29235" lon="3.68656">
        <ele>652.567</ele>
        <time>2011-09-17T09:36:07Z</time>
      </trkpt>
      <trkpt lat="44.29232" lon="3.68666">
        <ele>652.474</ele>
        <time>2011-09-17T09:36:17Z</time>
      </trkpt>
      <trkpt lat="44.29225" lon="3.68678">
        <ele>652.796</ele>
        <time>2011-09-17T09:36:27Z</time>
      </trkpt>
      <trkpt lat="44.29217" lon="3.68693">
        <ele>653.117</ele>
        <time>2011-09-17T09:36:37Z</time>
      </trkpt>
      <trkpt lat="44.29206" lon="3.68706">
        <ele>653.378</ele>
        <time>2011-09-17T09:36:47Z</time>
      </trkpt>
      <trkpt lat="44.29197" lon="3.68718">
        <ele>653.407</ele>
        <time>2011-09-17T09:36:57Z</time>
      </trkpt>
      <trkpt lat="44.2919" lon="3.68725">
        <ele>653.521</ele>
        <time>2011-09-17T09:37:07Z</time>
      </trkpt>
      <trkpt lat="44.29182" lon="3.68735">
        <ele>653.748</ele>
        <time>2011-09-17T09:37:17Z</time>
      </trkpt>
      <trkpt lat="44.29171" lon="3.68746">
        <ele>654.105</ele>
        <time>2011-09-17T09:37:27Z</time>
      </trkpt>
      <trkpt lat="44.29159" lon="3.68753">
        <ele>654.147</ele>
        <time>2011-09-17T09:37:37Z</time>
      </trkpt>
      <trkpt lat="44.29147" lon="3.68761">
        <ele>654.232</ele>
        <time>2011-09-17T09:37:47Z</time>
      </trkpt>
      <trkpt lat="44.29134" lon="3.68766">
        <ele>654.567</ele>
        <time>2011-09-17T09:37:57Z</time>
      </trkpt>
      <trkpt lat="44.29121" lon="3.68771">
        <ele>654.81</ele>
        <time>2011-09-17T09:38:07Z</time>
      </trkpt>
      <trkpt lat="44.2911" lon="3.68776">
        <ele>654.892</ele>
        <time>2011-09-17T09:38:17Z</time>
      </trkpt>
      <trkpt lat="44.29099" lon="3.68782">
        <ele>655.455</ele>
        <time>2011-09-17T09:38:27Z</time>
      </trkpt>
      <trkpt lat="44.29087" lon="3.68787">
        <ele>655.492</ele>
        <time>2011-09-17T09:38:37Z</time>
      </trkpt>
      <trkpt lat="44.29077" lon="3.68791">
        <ele>655.598</ele>
        <time>2011-09-17T09:38:47Z</time>
      </trkpt>
      <trkpt lat="44.29063" lon="3.68801">
        <ele>655.64</ele>
        <time>2011-09-17T09:38:57Z</time>
      </trkpt>
      <trkpt lat="44.2905" lon="3.68808">
        <ele>656.245</ele>
        <time>2011-09-17T09:39:07Z</time>
      </trkpt>
      <trkpt lat="44.2904" lon="3.6881">
        <ele>656.536</ele>
        <time>2011-09-17T09:39:17Z</time>
      </trkpt>
      <trkpt lat="44.29033" lon="3.68815">
        <ele>656.943</ele>
        <time>2011-09-17T09:39:27Z</time>
      </trkpt>
      <trkpt lat="44.29023" lon="3.68828">
        <ele>656.774</ele>
        <time>2011-09-17T09:39:37Z</time>
      </trkpt>
      <trkpt lat="44.29015" lon="3.68841">
        <ele>656.43</ele>
        <time>2011-09-17T09:39:47Z</time>
      </trkpt>
      <trkpt lat="44.29007" lon="3.68852">
        <ele>656.829</ele>
        <time>2011-09-17T09:39:57Z</time>
      </trkpt>
      <trkpt lat="44.28998" lon="3.68863">
        <ele>656.893</ele>
        <time>2011-09-17T09:40:07Z</time>
      </trkpt>
      <trkpt lat="44.28994" lon="3.6887">
        <ele>656.536</ele>
        <time>2011-09-17T09:40:17Z</time>
      </trkpt>
      <trkpt lat="44.28991" lon="3.68876">
        <ele>656.766</ele>
        <time>2011-09-17T09:40:27Z</time>
      </trkpt>
      <trkpt lat="44.28989" lon="3.68892">
        <ele>656.42</ele>
        <time>2011-09-17T09:40:37Z</time>
      </trkpt>
      <trkpt lat="44.28984" lon="3.68907">
        <ele>656.475</ele>
        <time>2011-09-17T09:40:47Z</time>
      </trkpt>
      <trkpt lat="44.28978" lon="3.68918">
        <ele>656.811</ele>
        <time>2011-09-17T09:40:57Z</time>
      </trkpt>
      <trkpt lat="44.28969" lon="3.68933">
        <ele>657.056</ele>
        <time>2011-09-17T09:41:07Z</time>
      </trkpt>
      <trkpt lat="44.28965" lon="3.68946">
        <ele>657.085</ele>
        <time>2011-09-17T09:41:17Z</time>
      </trkpt>
      <trkpt lat="44.28953" lon="3.68954">
        <ele>657.178</ele>
        <time>2011-09-17T09:41:27Z</time>
      </trkpt>
      <trkpt lat="44.28942" lon="3.6896">
        <ele>656.901</ele>
        <time>2011-09-17T09:41:37Z</time>
      </trkpt>
      <trkpt lat="44.28923" lon="3.68966">
        <ele>657.479</ele>
        <time>2011-09-17T09:41:47Z</time>
      </trkpt>
      <trkpt lat="44.28908" lon="3.68966">
        <ele>657.112</ele>
        <time>2011-09-17T09:41:57Z</time>
      </trkpt>
      <trkpt lat="44.28898" lon="3.68967">
        <ele>657.387</ele>
        <time>2011-09-17T09:42:07Z</time>
      </trkpt>
      <trkpt lat="44.28883" lon="3.68969">
        <ele>657.149</ele>
        <time>2011-09-17T09:42:17Z</time>
      </trkpt>
      <trkpt lat="44.2887" lon="3.68967">
        <ele>657.257</ele>
        <time>2011-09-17T09:42:27Z</time>
      </trkpt>
      <trkpt lat="44.28856" lon="3.68964">
        <ele>657.463</ele>
        <time>2011-09-17T09:42:37Z</time>
      </trkpt>
      <trkpt lat="44.28843" lon="3.68958">
        <ele>657.244</ele>
        <time>2011-09-17T09:42:47Z</time>
      </trkpt>
      <trkpt lat="44.28831" lon="3.68954">
        <ele>657.664</ele>
        <time>2011-09-17T09:42:57Z</time>
      </trkpt>
      <trkpt lat="44.28819" lon="3.68948">
        <ele>657.299</ele>
        <time>2011-09-17T09:43:07Z</time>
      </trkpt>
      <trkpt lat="44.28806" lon="3.68949">
        <ele>657.646</ele>
        <time>2011-09-17T09:43:17Z</time>
      </trkpt>
      <trkpt lat="44.28794" lon="3.68943">
        <ele>657.691</ele>
        <time>2011-09-17T09:43:27Z</time>
      </trkpt>
      <trkpt lat="44.28782" lon="3.68936">
        <ele>658.224</ele>
        <time>2011-09-17T09:43:37Z</time>
      </trkpt>
      <trkpt lat="44.28773" lon="3.68927">
        <ele>657.582</ele>
        <time>2011-09-17T09:43:47Z</time>
      </trkpt>
      <trkpt lat="44.28759" lon="3.68932">
        <ele>658.187</ele>
        <time>2011-09-17T09:43:57Z</time>
      </trkpt>
      <trkpt lat="44.28748" lon="3.68939">
        <ele>658.745</ele>
        <time>2011-09-17T09:44:07Z</time>
      </trkpt>
      <trkpt lat="44.28736" lon="3.68947">
        <ele>657.778</ele>
        <time>2011-09-17T09:44:17Z</time>
      </trkpt>
      <trkpt lat="44.28725" lon="3.68955">
        <ele>658.053</ele>
        <time>2011-09-17T09:44:27Z</time>
      </trkpt>
      <trkpt lat="44.28714" lon="3.68964">
        <ele>657.775</ele>
        <time>2011-09-17T09:44:37Z</time>
      </trkpt>
      <trkpt lat="44.28703" lon="3.68971">
        <ele>657.685</ele>
        <time>2011-09-17T09:44:47Z</time>
      </trkpt>
      <trkpt lat="44.28691" lon="3.6898">
        <ele>657.883</ele>
        <time>2011-09-17T09:44:57Z</time>
      </trkpt>
      <trkpt lat="44.28679" lon="3.68987">
        <ele>657.976</ele>
        <time>2011-09-17T09:45:07Z</time>
      </trkpt>
      <trkpt lat="44.28668" lon="3.68996">
        <ele>658.013</ele>
        <time>2011-09-17T09:45:17Z</time>
      </trkpt>
      <trkpt lat="44.28656" lon="3.69002">
        <ele>658.005</ele>
        <time>2011-09-17T09:45:27Z</time>
      </trkpt>
      <trkpt lat="44.28644" lon="3.6901">
        <ele>658.211</ele>
        <time>2011-09-17T09:45:37Z</time>
      </trkpt>
      <trkpt lat="44.28632" lon="3.69019">
        <ele>658.232</ele>
        <time>2011-09-17T09:45:47Z</time>
      </trkpt>
      <trkpt lat="44.2862" lon="3.69029">
        <ele>657.96</ele>
        <time>2011-09-17T09:45:57Z</time>
      </trkpt>
      <trkpt lat="44.2861" lon="3.69041">
        <ele>658.282</ele>
        <time>2011-09-17T09:46:07Z</time>
      </trkpt>
      <trkpt lat="44.28598" lon="3.69051">
        <ele>658.161</ele>
        <time>2011-09-17T09:46:17Z</time>
      </trkpt>
      <trkpt lat="44.28588" lon="3.69059">
        <ele>658.055</ele>
        <time>2011-09-17T09:46:27Z</time>
      </trkpt>
      <trkpt lat="44.28581" lon="3.69071">
        <ele>657.952</ele>
        <time>2011-09-17T09:46:37Z</time>
      </trkpt>
      <trkpt lat="44.28575" lon="3.69082">
        <ele>657.997</ele>
        <time>2011-09-17T09:46:47Z</time>
      </trkpt>
      <trkpt lat="44.28574" lon="3.69084">
        <ele>658.119</ele>
        <time>2011-09-17T09:46:57Z</time>
      </trkpt>
      <trkpt lat="44.28567" lon="3.69099">
        <ele>658.528</ele>
        <time>2011-09-17T09:47:07Z</time>
      </trkpt>
      <trkpt lat="44.28561" lon="3.69114">
        <ele>658.629</ele>
        <time>2011-09-17T09:47:17Z</time>
      </trkpt>
      <trkpt lat="44.28553" lon="3.69128">
        <ele>659.234</ele>
        <time>2011-09-17T09:47:27Z</time>
      </trkpt>
      <trkpt lat="44.28547" lon="3.69144">
        <ele>658.964</ele>
        <time>2011-09-17T09:47:37Z</time>
      </trkpt>
      <trkpt lat="44.28541" lon="3.69163">
        <ele>659.453</ele>
        <time>2011-09-17T09:47:47Z</time>
      </trkpt>
      <trkpt lat="44.28534" lon="3.69182">
        <ele>659.511</ele>
        <time>2011-09-17T09:47:57Z</time>
      </trkpt>
      <trkpt lat="44.28528" lon="3.69197">
        <ele>659.704</ele>
        <time>2011-09-17T09:48:07Z</time>
      </trkpt>
      <trkpt lat="44.28521" lon="3.69212">
        <ele>659.588</ele>
        <time>2011-09-17T09:48:17Z</time>
      </trkpt>
      <trkpt lat="44.28514" lon="3.69228">
        <ele>659.545</ele>
        <time>2011-09-17T09:48:27Z</time>
      </trkpt>
      <trkpt lat="44.28508" lon="3.69241">
        <ele>660.145</ele>
        <time>2011-09-17T09:48:37Z</time>
      </trkpt>
      <trkpt lat="44.285" lon="3.69258">
        <ele>660.172</ele>
        <time>2011-09-17T09:48:47Z</time>
      </trkpt>
      <trkpt lat="44.2849" lon="3.69272">
        <ele>659.997</ele>
        <time>2011-09-17T09:48:57Z</time>
      </trkpt>
      <trkpt lat="44.28482" lon="3.69284">
        <ele>659.979</ele>
        <time>2011-09-17T09:49:07Z</time>
      </trkpt>
      <trkpt lat="44.2847" lon="3.6929">
        <ele>660.145</ele>
        <time>2011-09-17T09:49:17Z</time>
      </trkpt>
      <trkpt lat="44.28458" lon="3.69302">
        <ele>660.727</ele>
        <time>2011-09-17T09:49:27Z</time>
      </trkpt>
      <trkpt lat="44.28451" lon="3.69316">
        <ele>661.12</ele>
        <time>2011-09-17T09:49:37Z</time>
      </trkpt>
      <trkpt lat="44.28441" lon="3.69324">
        <ele>661.041</ele>
        <time>2011-09-17T09:49:47Z</time>
      </trkpt>
      <trkpt lat="44.28429" lon="3.69332">
        <ele>661.155</ele>
        <time>2011-09-17T09:49:57Z</time>
      </trkpt>
      <trkpt lat="44.28419" lon="3.69348">
        <ele>661.07</ele>
        <time>2011-09-17T09:50:07Z</time>
      </trkpt>
      <trkpt lat="44.28407" lon="3.69355">
        <ele>661.041</ele>
        <time>2011-09-17T09:50:17Z</time>
      </trkpt>
      <trkpt lat="44.28396" lon="3.69365">
        <ele>660.645</ele>
        <time>2011-09-17T09:50:27Z</time>
      </trkpt>
      <trkpt lat="44.28387" lon="3.69378">
        <ele>660.785</ele>
        <time>2011-09-17T09:50:37Z</time>
      </trkpt>
      <trkpt lat="44.28377" lon="3.69387">
        <ele>661.104</ele>
        <time>2011-09-17T09:50:47Z</time>
      </trkpt>
      <trkpt lat="44.28368" lon="3.69402">
        <ele>660.684</ele>
        <time>2011-09-17T09:50:57Z</time>
      </trkpt>
      <trkpt lat="44.28355" lon="3.6941">
        <ele>660.528</ele>
        <time>2011-09-17T09:51:07Z</time>
      </trkpt>
      <trkpt lat="44.28342" lon="3.69419">
        <ele>660.806</ele>
        <time>2011-09-17T09:51:17Z</time>
      </trkpt>
      <trkpt lat="44.2833" lon="3.69427">
        <ele>660.806</ele>
        <time>2011-09-17T09:51:27Z</time>
      </trkpt>
      <trkpt lat="44.28319" lon="3.69437">
        <ele>660.814</ele>
        <time>2011-09-17T09:51:37Z</time>
      </trkpt>
      <trkpt lat="44.28309" lon="3.69444">
        <ele>660.806</ele>
        <time>2011-09-17T09:51:47Z</time>
      </trkpt>
      <trkpt lat="44.28299" lon="3.69452">
        <ele>661.348</ele>
        <time>2011-09-17T09:51:57Z</time>
      </trkpt>
      <trkpt lat="44.28287" lon="3.69461">
        <ele>660.655</ele>
        <time>2011-09-17T09:52:07Z</time>
      </trkpt>
      <trkpt lat="44.28277" lon="3.69473">
        <ele>661.107</ele>
        <time>2011-09-17T09:52:17Z</time>
      </trkpt>
      <trkpt lat="44.28268" lon="3.69487">
        <ele>661.326</ele>
        <time>2011-09-17T09:52:27Z</time>
      </trkpt>
      <trkpt lat="44.28262" lon="3.69506">
        <ele>661.49</ele>
        <time>2011-09-17T09:52:37Z</time>
      </trkpt>
      <trkpt lat="44.28256" lon="3.6952">
        <ele>661.979</ele>
        <time>2011-09-17T09:52:47Z</time>
      </trkpt>
      <trkpt lat="44.28253" lon="3.69537">
        <ele>661.408</ele>
        <time>2011-09-17T09:52:57Z</time>
      </trkpt>
      <trkpt lat="44.28249" lon="3.69556">
        <ele>661.366</ele>
        <time>2011-09-17T09:53:07Z</time>
      </trkpt>
      <trkpt lat="44.28244" lon="3.69573">
        <ele>662.037</ele>
        <time>2011-09-17T09:53:17Z</time>
      </trkpt>
      <trkpt lat="44.28238" lon="3.69591">
        <ele>662.098</ele>
        <time>2011-09-17T09:53:27Z</time>
      </trkpt>
      <trkpt lat="44.28231" lon="3.69606">
        <ele>662.447</ele>
        <time>2011-09-17T09:53:37Z</time>
      </trkpt>
      <trkpt lat="44.28222" lon="3.69621">
        <ele>661.831</ele>
        <time>2011-09-17T09:53:47Z</time>
      </trkpt>
      <trkpt lat="44.28219" lon="3.69625">
        <ele>661.53</ele>
        <time>2011-09-17T09:53:57Z</time>
      </trkpt>
      <trkpt lat="44.28222" lon="3.69626">
        <ele>661.314</ele>
        <time>2011-09-17T09:54:07Z</time>
      </trkpt>
      <trkpt lat="44.28221" lon="3.69625">
        <ele>661.189</ele>
        <time>2011-09-17T09:54:17Z</time>
      </trkpt>
      <trkpt lat="44.28219" lon="3.69617">
        <ele>660.984</ele>
        <time>2011-09-17T09:54:27Z</time>
      </trkpt>
      <trkpt lat="44.2822" lon="3.6962">
        <ele>661.45</ele>
        <time>2011-09-17T09:54:37Z</time>
      </trkpt>
      <trkpt lat="44.2822" lon="3.6962">
        <ele>661.319</ele>
        <time>2011-09-17T09:54:47Z</time>
      </trkpt>
      <trkpt lat="44.28216" lon="3.69619">
        <ele>661.082</ele>
        <time>2011-09-17T09:54:57Z</time>
      </trkpt>
      <trkpt lat="44.28216" lon="3.69619">
        <ele>661.68</ele>
        <time>2011-09-17T09:55:07Z</time>
      </trkpt>
      <trkpt lat="44.28216" lon="3.69619">
        <ele>661.648</ele>
        <time>2011-09-17T09:55:17Z</time>
      </trkpt>
      <trkpt lat="44.28216" lon="3.69619">
        <ele>661.416</ele>
        <time>2011-09-17T09:55:27Z</time>
      </trkpt>
      <trkpt lat="44.28216" lon="3.69619">
        <ele>661.172</ele>
        <time>2011-09-17T09:55:37Z</time>
      </trkpt>
      <trkpt lat="44.28215" lon="3.69618">
        <ele>661.498</ele>
        <time>2011-09-17T09:55:47Z</time>
      </trkpt>
      <trkpt lat="44.28215" lon="3.69618">
        <ele>661.069</ele>
        <time>2011-09-17T09:55:57Z</time>
      </trkpt>
      <trkpt lat="44.28215" lon="3.69618">
        <ele>661.417</ele>
        <time>2011-09-17T09:56:07Z</time>
      </trkpt>
      <trkpt lat="44.28215" lon="3.69618">
        <ele>661.031</ele>
        <time>2011-09-17T09:56:17Z</time>
      </trkpt>
      <trkpt lat="44.28215" lon="3.69618">
        <ele>660.894</ele>
        <time>2011-09-17T09:56:27Z</time>
      </trkpt>
      <trkpt lat="44.28215" lon="3.69617">
        <ele>660.905</ele>
        <time>2011-09-17T09:56:37Z</time>
      </trkpt>
      <trkpt lat="44.28216" lon="3.69618">
        <ele>661.243</ele>
        <time>2011-09-17T09:56:47Z</time>
      </trkpt>
      <trkpt lat="44.28215" lon="3.69619">
        <ele>661.108</ele>
        <time>2011-09-17T09:56:57Z</time>
      </trkpt>
      <trkpt lat="44.28216" lon="3.69617">
        <ele>661.072</ele>
        <time>2011-09-17T09:57:07Z</time>
      </trkpt>
      <trkpt lat="44.28216" lon="3.69618">
        <ele>661.042</ele>
        <time>2011-09-17T09:57:17Z</time>
      </trkpt>
      <trkpt lat="44.28216" lon="3.69618">
        <ele>661.266</ele>
        <time>2011-09-17T09:57:27Z</time>
      </trkpt>
      <trkpt lat="44.28216" lon="3.69618">
        <ele>661.318</ele>
        <time>2011-09-17T09:57:37Z</time>
      </trkpt>
      <trkpt lat="44.28216" lon="3.69618">
        <ele>661.145</ele>
        <time>2011-09-17T09:57:47Z</time>
      </trkpt>
      <trkpt lat="44.28216" lon="3.69618">
        <ele>661.686</ele>
        <time>2011-09-17T09:57:57Z</time>
      </trkpt>
      <trkpt lat="44.28216" lon="3.69618">
        <ele>661.206</ele>
        <time>2011-09-17T09:58:07Z</time>
      </trkpt>
      <trkpt lat="44.28215" lon="3.6962">
        <ele>661.144</ele>
        <time>2011-09-17T09:58:17Z</time>
      </trkpt>
      <trkpt lat="44.28216" lon="3.69623">
        <ele>661.076</ele>
        <time>2011-09-17T09:58:27Z</time>
      </trkpt>
      <trkpt lat="44.28214" lon="3.69614">
        <ele>660.848</ele>
        <time>2011-09-17T09:58:37Z</time>
      </trkpt>
      <trkpt lat="44.28212" lon="3.69608">
        <ele>660.853</ele>
        <time>2011-09-17T09:58:47Z</time>
      </trkpt>
      <trkpt lat="44.28212" lon="3.69608">
        <ele>660.91</ele>
        <time>2011-09-17T09:58:57Z</time>
      </trkpt>
      <trkpt lat="44.28212" lon="3.69608">
        <ele>660.52</ele>
        <time>2011-09-17T09:59:07Z</time>
      </trkpt>
      <trkpt lat="44.28215" lon="3.69619">
        <ele>660.31</ele>
        <time>2011-09-17T09:59:17Z</time>
      </trkpt>
      <trkpt lat="44.28214" lon="3.69624">
        <ele>660.812</ele>
        <time>2011-09-17T09:59:27Z</time>
      </trkpt>
      <trkpt lat="44.28214" lon="3.69624">
        <ele>661.412</ele>
        <time>2011-09-17T09:59:37Z</time>
      </trkpt>
      <trkpt lat="44.28214" lon="3.69624">
        <ele>660.966</ele>
        <time>2011-09-17T09:59:47Z</time>
      </trkpt>
      <trkpt lat="44.28214" lon="3.69624">
        <ele>660.917</ele>
        <time>2011-09-17T09:59:57Z</time>
      </trkpt>
      <trkpt lat="44.28214" lon="3.69624">
        <ele>660.898</ele>
        <time>2011-09-17T10:00:07Z</time>
      </trkpt>
      <trkpt lat="44.28214" lon="3.69624">
        <ele>660.739</ele>
        <time>2011-09-17T10:00:17Z</time>
      </trkpt>
      <trkpt lat="44.28214" lon="3.69624">
        <ele>660.53</ele>
        <time>2011-09-17T10:00:27Z</time>
      </trkpt>
      <trkpt lat="44.28214" lon="3.69624">
        <ele>660.586</ele>
        <time>2011-09-17T10:00:37Z</time>
      </trkpt>
      <trkpt lat="44.28214" lon="3.69624">
        <ele>660.151</ele>
        <time>2011-09-17T10:00:47Z</time>
      </trkpt>
      <trkpt lat="44.28214" lon="3.69622">
        <ele>659.85</ele>
        <time>2011-09-17T10:00:57Z</time>
      </trkpt>
      <trkpt lat="44.28214" lon="3.69623">
        <ele>659.744</ele>
        <time>2011-09-17T10:01:07Z</time>
      </trkpt>
      <trkpt lat="44.28213" lon="3.69621">
        <ele>660.591</ele>
        <time>2011-09-17T10:01:17Z</time>
      </trkpt>
      <trkpt lat="44.28214" lon="3.69621">
        <ele>660.887</ele>
        <time>2011-09-17T10:01:27Z</time>
      </trkpt>
      <trkpt lat="44.28215" lon="3.69622">
        <ele>659.777</ele>
        <time>2011-09-17T10:01:37Z</time>
      </trkpt>
      <trkpt lat="44.28216" lon="3.69623">
        <ele>660.093</ele>
        <time>2011-09-17T10:01:47Z</time>
      </trkpt>
      <trkpt lat="44.28215" lon="3.69621">
        <ele>659.836</ele>
        <time>2011-09-17T10:01:57Z</time>
      </trkpt>
      <trkpt lat="44.28214" lon="3.69622">
        <ele>659.78</ele>
        <time>2011-09-17T10:02:07Z</time>
      </trkpt>
      <trkpt lat="44.28214" lon="3.69623">
        <ele>660.109</ele>
        <time>2011-09-17T10:02:17Z</time>
      </trkpt>
      <trkpt lat="44.28214" lon="3.69623">
        <ele>659.888</ele>
        <time>2011-09-17T10:02:27Z</time>
      </trkpt>
      <trkpt lat="44.28214" lon="3.69623">
        <ele>660.149</ele>
        <time>2011-09-17T10:02:37Z</time>
      </trkpt>
      <trkpt lat="44.28214" lon="3.69623">
        <ele>660.302</ele>
        <time>2011-09-17T10:02:47Z</time>
      </trkpt>
      <trkpt lat="44.28214" lon="3.69624">
        <ele>660.207</ele>
        <time>2011-09-17T10:02:57Z</time>
      </trkpt>
      <trkpt lat="44.28214" lon="3.69624">
        <ele>660.086</ele>
        <time>2011-09-17T10:03:07Z</time>
      </trkpt>
      <trkpt lat="44.28214" lon="3.69624">
        <ele>659.987</ele>
        <time>2011-09-17T10:03:17Z</time>
      </trkpt>
      <trkpt lat="44.28214" lon="3.69624">
        <ele>659.718</ele>
        <time>2011-09-17T10:03:27Z</time>
      </trkpt>
      <trkpt lat="44.28214" lon="3.69624">
        <ele>660.025</ele>
        <time>2011-09-17T10:03:37Z</time>
      </trkpt>
      <trkpt lat="44.28214" lon="3.69624">
        <ele>659.908</ele>
        <time>2011-09-17T10:03:47Z</time>
      </trkpt>
      <trkpt lat="44.28214" lon="3.69624">
        <ele>660.264</ele>
        <time>2011-09-17T10:03:57Z</time>
      </trkpt>
      <trkpt lat="44.28214" lon="3.69624">
        <ele>659.936</ele>
        <time>2011-09-17T10:04:07Z</time>
      </trkpt>
      <trkpt lat="44.28214" lon="3.69624">
        <ele>659.732</ele>
        <time>2011-09-17T10:04:17Z</time>
      </trkpt>
      <trkpt lat="44.28214" lon="3.69624">
        <ele>660.31</ele>
        <time>2011-09-17T10:04:27Z</time>
      </trkpt>
      <trkpt lat="44.28214" lon="3.69624">
        <ele>660.46</ele>
        <time>2011-09-17T10:04:37Z</time>
      </trkpt>
      <trkpt lat="44.28214" lon="3.69624">
        <ele>660.225</ele>
        <time>2011-09-17T10:04:47Z</time>
      </trkpt>
      <trkpt lat="44.28214" lon="3.69624">
        <ele>660.444</ele>
        <time>2011-09-17T10:04:57Z</time>
      </trkpt>
      <trkpt lat="44.28214" lon="3.69624">
        <ele>660.55</ele>
        <time>2011-09-17T10:05:07Z</time>
      </trkpt>
      <trkpt lat="44.28214" lon="3.69624">
        <ele>660.842</ele>
        <time>2011-09-17T10:05:17Z</time>
      </trkpt>
      <trkpt lat="44.28214" lon="3.69624">
        <ele>660.681</ele>
        <time>2011-09-17T10:05:27Z</time>
      </trkpt>
      <trkpt lat="44.28215" lon="3.69624">
        <ele>661.018</ele>
        <time>2011-09-17T10:05:37Z</time>
      </trkpt>
      <trkpt lat="44.28215" lon="3.69624">
        <ele>660.855</ele>
        <time>2011-09-17T10:05:47Z</time>
      </trkpt>
      <trkpt lat="44.28215" lon="3.69624">
        <ele>661.035</ele>
        <time>2011-09-17T10:05:57Z</time>
      </trkpt>
      <trkpt lat="44.28215" lon="3.69624">
        <ele>660.874</ele>
        <time>2011-09-17T10:06:07Z</time>
      </trkpt>
      <trkpt lat="44.28215" lon="3.69624">
        <ele>660.948</ele>
        <time>2011-09-17T10:06:17Z</time>
      </trkpt>
      <trkpt lat="44.28215" lon="3.69625">
        <ele>661.025</ele>
        <time>2011-09-17T10:06:27Z</time>
      </trkpt>
      <trkpt lat="44.28215" lon="3.69625">
        <ele>660.9</ele>
        <time>2011-09-17T10:06:37Z</time>
      </trkpt>
      <trkpt lat="44.28215" lon="3.69625">
        <ele>661.018</ele>
        <time>2011-09-17T10:06:47Z</time>
      </trkpt>
      <trkpt lat="44.28215" lon="3.69625">
        <ele>661.041</ele>
        <time>2011-09-17T10:06:57Z</time>
      </trkpt>
      <trkpt lat="44.28215" lon="3.69625">
        <ele>660.845</ele>
        <time>2011-09-17T10:07:07Z</time>
      </trkpt>
      <trkpt lat="44.28215" lon="3.69625">
        <ele>661.18</ele>
        <time>2011-09-17T10:07:17Z</time>
      </trkpt>
      <trkpt lat="44.28215" lon="3.69625">
        <ele>661.52</ele>
        <time>2011-09-17T10:07:27Z</time>
      </trkpt>
      <trkpt lat="44.28215" lon="3.69625">
        <ele>661.087</ele>
        <time>2011-09-17T10:07:37Z</time>
      </trkpt>
      <trkpt lat="44.28215" lon="3.69625">
        <ele>661.123</ele>
        <time>2011-09-17T10:07:47Z</time>
      </trkpt>
      <trkpt lat="44.28215" lon="3.69625">
        <ele>661.267</ele>
        <time>2011-09-17T10:07:57Z</time>
      </trkpt>
      <trkpt lat="44.28215" lon="3.69625">
        <ele>661.297</ele>
        <time>2011-09-17T10:08:07Z</time>
      </trkpt>
      <trkpt lat="44.28215" lon="3.69625">
        <ele>661.381</ele>
        <time>2011-09-17T10:08:17Z</time>
      </trkpt>
      <trkpt lat="44.28215" lon="3.69625">
        <ele>661.218</ele>
        <time>2011-09-17T10:08:27Z</time>
      </trkpt>
      <trkpt lat="44.28215" lon="3.69625">
        <ele>661.2</ele>
        <time>2011-09-17T10:08:37Z</time>
      </trkpt>
      <trkpt lat="44.28215" lon="3.69625">
        <ele>661.633</ele>
        <time>2011-09-17T10:08:47Z</time>
      </trkpt>
      <trkpt lat="44.28215" lon="3.69625">
        <ele>661.437</ele>
        <time>2011-09-17T10:08:57Z</time>
      </trkpt>
      <trkpt lat="44.28215" lon="3.69625">
        <ele>661.224</ele>
        <time>2011-09-17T10:09:07Z</time>
      </trkpt>
      <trkpt lat="44.28215" lon="3.69625">
        <ele>661.156</ele>
        <time>2011-09-17T10:09:17Z</time>
      </trkpt>
      <trkpt lat="44.28215" lon="3.69625">
        <ele>660.782</ele>
        <time>2011-09-17T10:09:27Z</time>
      </trkpt>
      <trkpt lat="44.28215" lon="3.69625">
        <ele>661.087</ele>
        <time>2011-09-17T10:09:37Z</time>
      </trkpt>
      <trkpt lat="44.28215" lon="3.69625">
        <ele>661.042</ele>
        <time>2011-09-17T10:09:47Z</time>
      </trkpt>
      <trkpt lat="44.28214" lon="3.69626">
        <ele>661.001</ele>
        <time>2011-09-17T10:09:57Z</time>
      </trkpt>
      <trkpt lat="44.28214" lon="3.69626">
        <ele>661.07</ele>
        <time>2011-09-17T10:10:07Z</time>
      </trkpt>
      <trkpt lat="44.28214" lon="3.69627">
        <ele>661.076</ele>
        <time>2011-09-17T10:10:17Z</time>
      </trkpt>
      <trkpt lat="44.28214" lon="3.69627">
        <ele>660.835</ele>
        <time>2011-09-17T10:10:27Z</time>
      </trkpt>
      <trkpt lat="44.28214" lon="3.69627">
        <ele>660.96</ele>
        <time>2011-09-17T10:10:37Z</time>
      </trkpt>
      <trkpt lat="44.28214" lon="3.69627">
        <ele>660.956</ele>
        <time>2011-09-17T10:10:47Z</time>
      </trkpt>
      <trkpt lat="44.28214" lon="3.69627">
        <ele>661.116</ele>
        <time>2011-09-17T10:10:57Z</time>
      </trkpt>
      <trkpt lat="44.28214" lon="3.69627">
        <ele>661.701</ele>
        <time>2011-09-17T10:11:07Z</time>
      </trkpt>
      <trkpt lat="44.28214" lon="3.69627">
        <ele>660.82</ele>
        <time>2011-09-17T10:11:17Z</time>
      </trkpt>
      <trkpt lat="44.28214" lon="3.69627">
        <ele>660.956</ele>
        <time>2011-09-17T10:11:27Z</time>
      </trkpt>
      <trkpt lat="44.28214" lon="3.69627">
        <ele>661.327</ele>
        <time>2011-09-17T10:11:37Z</time>
      </trkpt>
      <trkpt lat="44.28214" lon="3.69627">
        <ele>660.781</ele>
        <time>2011-09-17T10:11:47Z</time>
      </trkpt>
      <trkpt lat="44.28214" lon="3.69627">
        <ele>661.061</ele>
        <time>2011-09-17T10:11:57Z</time>
      </trkpt>
      <trkpt lat="44.28214" lon="3.69627">
        <ele>660.775</ele>
        <time>2011-09-17T10:12:07Z</time>
      </trkpt>
      <trkpt lat="44.28214" lon="3.69627">
        <ele>660.959</ele>
        <time>2011-09-17T10:12:17Z</time>
      </trkpt>
      <trkpt lat="44.28214" lon="3.69628">
        <ele>661.059</ele>
        <time>2011-09-17T10:12:27Z</time>
      </trkpt>
      <trkpt lat="44.28214" lon="3.69628">
        <ele>660.792</ele>
        <time>2011-09-17T10:12:37Z</time>
      </trkpt>
      <trkpt lat="44.28214" lon="3.69628">
        <ele>660.597</ele>
        <time>2011-09-17T10:12:47Z</time>
      </trkpt>
      <trkpt lat="44.28214" lon="3.69628">
        <ele>661.075</ele>
        <time>2011-09-17T10:12:57Z</time>
      </trkpt>
      <trkpt lat="44.28214" lon="3.69628">
        <ele>660.798</ele>
        <time>2011-09-17T10:13:07Z</time>
      </trkpt>
      <trkpt lat="44.28214" lon="3.69627">
        <ele>660.745</ele>
        <time>2011-09-17T10:13:17Z</time>
      </trkpt>
      <trkpt lat="44.28213" lon="3.69627">
        <ele>660.726</ele>
        <time>2011-09-17T10:13:27Z</time>
      </trkpt>
      <trkpt lat="44.28213" lon="3.69627">
        <ele>660.577</ele>
        <time>2011-09-17T10:13:37Z</time>
      </trkpt>
      <trkpt lat="44.28213" lon="3.69627">
        <ele>660.955</ele>
        <time>2011-09-17T10:13:47Z</time>
      </trkpt>
      <trkpt lat="44.28213" lon="3.69627">
        <ele>660.836</ele>
        <time>2011-09-17T10:13:57Z</time>
      </trkpt>
      <trkpt lat="44.28213" lon="3.69627">
        <ele>661.129</ele>
        <time>2011-09-17T10:14:07Z</time>
      </trkpt>
      <trkpt lat="44.28213" lon="3.69627">
        <ele>660.894</ele>
        <time>2011-09-17T10:14:17Z</time>
      </trkpt>
      <trkpt lat="44.28214" lon="3.69627">
        <ele>660.769</ele>
        <time>2011-09-17T10:14:27Z</time>
      </trkpt>
      <trkpt lat="44.28214" lon="3.69627">
        <ele>661.155</ele>
        <time>2011-09-17T10:14:37Z</time>
      </trkpt>
      <trkpt lat="44.28214" lon="3.69627">
        <ele>660.732</ele>
        <time>2011-09-17T10:14:47Z</time>
      </trkpt>
      <trkpt lat="44.28214" lon="3.69627">
        <ele>660.616</ele>
        <time>2011-09-17T10:14:57Z</time>
      </trkpt>
      <trkpt lat="44.28214" lon="3.69627">
        <ele>660.601</ele>
        <time>2011-09-17T10:15:07Z</time>
      </trkpt>
      <trkpt lat="44.28214" lon="3.69627">
        <ele>660.792</ele>
        <time>2011-09-17T10:15:17Z</time>
      </trkpt>
      <trkpt lat="44.28214" lon="3.69627">
        <ele>660.327</ele>
        <time>2011-09-17T10:15:27Z</time>
      </trkpt>
      <trkpt lat="44.28214" lon="3.69627">
        <ele>660.751</ele>
        <time>2011-09-17T10:15:37Z</time>
      </trkpt>
      <trkpt lat="44.28214" lon="3.69627">
        <ele>660.277</ele>
        <time>2011-09-17T10:15:47Z</time>
      </trkpt>
      <trkpt lat="44.28214" lon="3.69627">
        <ele>660.876</ele>
        <time>2011-09-17T10:15:57Z</time>
      </trkpt>
      <trkpt lat="44.28214" lon="3.69627">
        <ele>660.389</ele>
        <time>2011-09-17T10:16:07Z</time>
      </trkpt>
      <trkpt lat="44.28214" lon="3.69627">
        <ele>660.573</ele>
        <time>2011-09-17T10:16:17Z</time>
      </trkpt>
      <trkpt lat="44.28213" lon="3.69627">
        <ele>660.609</ele>
        <time>2011-09-17T10:16:27Z</time>
      </trkpt>
      <trkpt lat="44.28214" lon="3.69627">
        <ele>660.507</ele>
        <time>2011-09-17T10:16:37Z</time>
      </trkpt>
      <trkpt lat="44.28214" lon="3.69627">
        <ele>660.724</ele>
        <time>2011-09-17T10:16:47Z</time>
      </trkpt>
      <trkpt lat="44.28214" lon="3.69627">
        <ele>660.765</ele>
        <time>2011-09-17T10:16:57Z</time>
      </trkpt>
      <trkpt lat="44.28214" lon="3.69627">
        <ele>660.475</ele>
        <time>2011-09-17T10:17:07Z</time>
      </trkpt>
      <trkpt lat="44.28214" lon="3.69627">
        <ele>660.578</ele>
        <time>2011-09-17T10:17:17Z</time>
      </trkpt>
      <trkpt lat="44.28214" lon="3.69627">
        <ele>660.545</ele>
        <time>2011-09-17T10:17:27Z</time>
      </trkpt>
      <trkpt lat="44.28214" lon="3.69627">
        <ele>660.385</ele>
        <time>2011-09-17T10:17:37Z</time>
      </trkpt>
      <trkpt lat="44.28214" lon="3.69627">
        <ele>660.688</ele>
        <time>2011-09-17T10:17:47Z</time>
      </trkpt>
      <trkpt lat="44.28214" lon="3.69627">
        <ele>660.335</ele>
        <time>2011-09-17T10:17:57Z</time>
      </trkpt>
      <trkpt lat="44.28213" lon="3.69627">
        <ele>660.409</ele>
        <time>2011-09-17T10:18:07Z</time>
      </trkpt>
      <trkpt lat="44.28213" lon="3.69627">
        <ele>660.806</ele>
        <time>2011-09-17T10:18:17Z</time>
      </trkpt>
      <trkpt lat="44.28213" lon="3.69627">
        <ele>661.086</ele>
        <time>2011-09-17T10:18:27Z</time>
      </trkpt>
      <trkpt lat="44.28213" lon="3.69627">
        <ele>660.889</ele>
        <time>2011-09-17T10:18:37Z</time>
      </trkpt>
      <trkpt lat="44.28213" lon="3.69627">
        <ele>660.874</ele>
        <time>2011-09-17T10:18:47Z</time>
      </trkpt>
      <trkpt lat="44.28214" lon="3.69627">
        <ele>660.425</ele>
        <time>2011-09-17T10:18:57Z</time>
      </trkpt>
      <trkpt lat="44.28214" lon="3.69626">
        <ele>661.454</ele>
        <time>2011-09-17T10:19:07Z</time>
      </trkpt>
      <trkpt lat="44.28214" lon="3.69625">
        <ele>660.686</ele>
        <time>2011-09-17T10:19:17Z</time>
      </trkpt>
      <trkpt lat="44.28214" lon="3.69625">
        <ele>661.12</ele>
        <time>2011-09-17T10:19:27Z</time>
      </trkpt>
      <trkpt lat="44.28214" lon="3.69626">
        <ele>660.523</ele>
        <time>2011-09-17T10:19:37Z</time>
      </trkpt>
      <trkpt lat="44.28214" lon="3.69625">
        <ele>661.064</ele>
        <time>2011-09-17T10:19:47Z</time>
      </trkpt>
      <trkpt lat="44.28214" lon="3.69625">
        <ele>660.705</ele>
        <time>2011-09-17T10:19:57Z</time>
      </trkpt>
      <trkpt lat="44.28214" lon="3.69625">
        <ele>661.023</ele>
        <time>2011-09-17T10:20:07Z</time>
      </trkpt>
      <trkpt lat="44.28214" lon="3.69625">
        <ele>660.989</ele>
        <time>2011-09-17T10:20:17Z</time>
      </trkpt>
      <trkpt lat="44.28214" lon="3.69625">
        <ele>660.974</ele>
        <time>2011-09-17T10:20:27Z</time>
      </trkpt>
      <trkpt lat="44.28214" lon="3.69625">
        <ele>660.983</ele>
        <time>2011-09-17T10:20:37Z</time>
      </trkpt>
      <trkpt lat="44.28214" lon="3.69625">
        <ele>660.961</ele>
        <time>2011-09-17T10:20:47Z</time>
      </trkpt>
      <trkpt lat="44.28214" lon="3.69625">
        <ele>660.937</ele>
        <time>2011-09-17T10:20:57Z</time>
      </trkpt>
      <trkpt lat="44.28214" lon="3.69625">
        <ele>660.946</ele>
        <time>2011-09-17T10:21:07Z</time>
      </trkpt>
      <trkpt lat="44.28214" lon="3.69625">
        <ele>660.706</ele>
        <time>2011-09-17T10:21:17Z</time>
      </trkpt>
      <trkpt lat="44.28214" lon="3.69625">
        <ele>660.689</ele>
        <time>2011-09-17T10:21:27Z</time>
      </trkpt>
      <trkpt lat="44.28214" lon="3.69625">
        <ele>660.843</ele>
        <time>2011-09-17T10:21:37Z</time>
      </trkpt>
      <trkpt lat="44.28214" lon="3.69625">
        <ele>660.671</ele>
        <time>2011-09-17T10:21:47Z</time>
      </trkpt>
      <trkpt lat="44.28214" lon="3.69625">
        <ele>660.51</ele>
        <time>2011-09-17T10:21:57Z</time>
      </trkpt>
      <trkpt lat="44.28214" lon="3.69625">
        <ele>660.777</ele>
        <time>2011-09-17T10:22:07Z</time>
      </trkpt>
      <trkpt lat="44.28214" lon="3.69625">
        <ele>660.408</ele>
        <time>2011-09-17T10:22:17Z</time>
      </trkpt>
      <trkpt lat="44.28214" lon="3.69625">
        <ele>660.361</ele>
        <time>2011-09-17T10:22:27Z</time>
      </trkpt>
      <trkpt lat="44.28213" lon="3.69625">
        <ele>660.742</ele>
        <time>2011-09-17T10:22:37Z</time>
      </trkpt>
      <trkpt lat="44.28212" lon="3.69624">
        <ele>660.591</ele>
        <time>2011-09-17T10:22:47Z</time>
      </trkpt>
      <trkpt lat="44.28212" lon="3.69625">
        <ele>660.702</ele>
        <time>2011-09-17T10:22:57Z</time>
      </trkpt>
      <trkpt lat="44.28212" lon="3.69625">
        <ele>660.696</ele>
        <time>2011-09-17T10:23:07Z</time>
      </trkpt>
      <trkpt lat="44.28213" lon="3.69625">
        <ele>661.01</ele>
        <time>2011-09-17T10:23:17Z</time>
      </trkpt>
      <trkpt lat="44.28214" lon="3.69626">
        <ele>660.962</ele>
        <time>2011-09-17T10:23:27Z</time>
      </trkpt>
      <trkpt lat="44.28215" lon="3.69626">
        <ele>660.457</ele>
        <time>2011-09-17T10:23:37Z</time>
      </trkpt>
      <trkpt lat="44.28217" lon="3.69626">
        <ele>660.587</ele>
        <time>2011-09-17T10:23:47Z</time>
      </trkpt>
      <trkpt lat="44.28217" lon="3.69626">
        <ele>660.818</ele>
        <time>2011-09-17T10:23:57Z</time>
      </trkpt>
      <trkpt lat="44.28217" lon="3.69626">
        <ele>661.268</ele>
        <time>2011-09-17T10:24:07Z</time>
      </trkpt>
      <trkpt lat="44.28217" lon="3.69626">
        <ele>660.58</ele>
        <time>2011-09-17T10:24:17Z</time>
      </trkpt>
      <trkpt lat="44.28217" lon="3.69626">
        <ele>660.939</ele>
        <time>2011-09-17T10:24:27Z</time>
      </trkpt>
      <trkpt lat="44.28217" lon="3.69626">
        <ele>660.626</ele>
        <time>2011-09-17T10:24:37Z</time>
      </trkpt>
      <trkpt lat="44.28217" lon="3.69626">
        <ele>660.552</ele>
        <time>2011-09-17T10:24:47Z</time>
      </trkpt>
      <trkpt lat="44.28217" lon="3.69626">
        <ele>660.617</ele>
        <time>2011-09-17T10:24:57Z</time>
      </trkpt>
      <trkpt lat="44.28217" lon="3.69626">
        <ele>661.419</ele>
        <time>2011-09-17T10:25:07Z</time>
      </trkpt>
      <trkpt lat="44.28217" lon="3.69626">
        <ele>661.386</ele>
        <time>2011-09-17T10:25:17Z</time>
      </trkpt>
      <trkpt lat="44.28216" lon="3.69626">
        <ele>661.413</ele>
        <time>2011-09-17T10:25:27Z</time>
      </trkpt>
      <trkpt lat="44.28216" lon="3.69626">
        <ele>660.916</ele>
        <time>2011-09-17T10:25:37Z</time>
      </trkpt>
      <trkpt lat="44.28216" lon="3.69626">
        <ele>660.963</ele>
        <time>2011-09-17T10:25:47Z</time>
      </trkpt>
      <trkpt lat="44.28216" lon="3.69626">
        <ele>661.086</ele>
        <time>2011-09-17T10:25:57Z</time>
      </trkpt>
      <trkpt lat="44.28216" lon="3.69626">
        <ele>660.804</ele>
        <time>2011-09-17T10:26:07Z</time>
      </trkpt>
      <trkpt lat="44.28216" lon="3.69626">
        <ele>661.203</ele>
        <time>2011-09-17T10:26:17Z</time>
      </trkpt>
      <trkpt lat="44.28216" lon="3.69626">
        <ele>661.108</ele>
        <time>2011-09-17T10:26:27Z</time>
      </trkpt>
      <trkpt lat="44.28216" lon="3.69626">
        <ele>661.348</ele>
        <time>2011-09-17T10:26:37Z</time>
      </trkpt>
      <trkpt lat="44.28216" lon="3.69626">
        <ele>661.224</ele>
        <time>2011-09-17T10:26:47Z</time>
      </trkpt>
      <trkpt lat="44.28216" lon="3.69626">
        <ele>661.35</ele>
        <time>2011-09-17T10:26:57Z</time>
      </trkpt>
      <trkpt lat="44.28216" lon="3.69626">
        <ele>661.645</ele>
        <time>2011-09-17T10:27:07Z</time>
      </trkpt>
      <trkpt lat="44.28216" lon="3.69626">
        <ele>661.432</ele>
        <time>2011-09-17T10:27:17Z</time>
      </trkpt>
      <trkpt lat="44.28216" lon="3.69626">
        <ele>661.132</ele>
        <time>2011-09-17T10:27:27Z</time>
      </trkpt>
      <trkpt lat="44.28216" lon="3.69626">
        <ele>661.268</ele>
        <time>2011-09-17T10:27:37Z</time>
      </trkpt>
      <trkpt lat="44.28216" lon="3.69626">
        <ele>661.307</ele>
        <time>2011-09-17T10:27:47Z</time>
      </trkpt>
      <trkpt lat="44.28215" lon="3.69628">
        <ele>661.308</ele>
        <time>2011-09-17T10:27:57Z</time>
      </trkpt>
      <trkpt lat="44.28214" lon="3.69629">
        <ele>661.73</ele>
        <time>2011-09-17T10:28:07Z</time>
      </trkpt>
      <trkpt lat="44.28214" lon="3.69627">
        <ele>661.573</ele>
        <time>2011-09-17T10:28:17Z</time>
      </trkpt>
      <trkpt lat="44.28215" lon="3.69626">
        <ele>661.627</ele>
        <time>2011-09-17T10:28:27Z</time>
      </trkpt>
      <trkpt lat="44.28215" lon="3.69626">
        <ele>661.427</ele>
        <time>2011-09-17T10:28:37Z</time>
      </trkpt>
      <trkpt lat="44.28214" lon="3.69624">
        <ele>661.485</ele>
        <time>2011-09-17T10:28:47Z</time>
      </trkpt>
      <trkpt lat="44.28214" lon="3.69624">
        <ele>661.086</ele>
        <time>2011-09-17T10:28:57Z</time>
      </trkpt>
      <trkpt lat="44.28214" lon="3.69624">
        <ele>661.63</ele>
        <time>2011-09-17T10:29:07Z</time>
      </trkpt>
      <trkpt lat="44.28214" lon="3.69624">
        <ele>661.465</ele>
        <time>2011-09-17T10:29:17Z</time>
      </trkpt>
      <trkpt lat="44.28214" lon="3.69624">
        <ele>661.51</ele>
        <time>2011-09-17T10:29:27Z</time>
      </trkpt>
      <trkpt lat="44.28214" lon="3.69624">
        <ele>661.357</ele>
        <time>2011-09-17T10:29:37Z</time>
      </trkpt>
      <trkpt lat="44.28214" lon="3.69624">
        <ele>661.098</ele>
        <time>2011-09-17T10:29:47Z</time>
      </trkpt>
      <trkpt lat="44.28214" lon="3.69624">
        <ele>660.794</ele>
        <time>2011-09-17T10:29:57Z</time>
      </trkpt>
      <trkpt lat="44.28214" lon="3.69624">
        <ele>660.691</ele>
        <time>2011-09-17T10:30:07Z</time>
      </trkpt>
      <trkpt lat="44.28215" lon="3.69624">
        <ele>660.885</ele>
        <time>2011-09-17T10:30:17Z</time>
      </trkpt>
      <trkpt lat="44.28215" lon="3.69624">
        <ele>660.831</ele>
        <time>2011-09-17T10:30:27Z</time>
      </trkpt>
      <trkpt lat="44.28215" lon="3.69624">
        <ele>661.106</ele>
        <time>2011-09-17T10:30:37Z</time>
      </trkpt>
      <trkpt lat="44.28215" lon="3.69624">
        <ele>660.871</ele>
        <time>2011-09-17T10:30:47Z</time>
      </trkpt>
      <trkpt lat="44.28215" lon="3.69624">
        <ele>660.917</ele>
        <time>2011-09-17T10:30:57Z</time>
      </trkpt>
      <trkpt lat="44.28215" lon="3.69624">
        <ele>661.18</ele>
        <time>2011-09-17T10:31:07Z</time>
      </trkpt>
      <trkpt lat="44.28215" lon="3.69624">
        <ele>661.075</ele>
        <time>2011-09-17T10:31:17Z</time>
      </trkpt>
      <trkpt lat="44.28215" lon="3.69624">
        <ele>661.15</ele>
        <time>2011-09-17T10:31:27Z</time>
      </trkpt>
      <trkpt lat="44.28215" lon="3.69624">
        <ele>661.235</ele>
        <time>2011-09-17T10:31:37Z</time>
      </trkpt>
      <trkpt lat="44.28215" lon="3.69624">
        <ele>660.883</ele>
        <time>2011-09-17T10:31:47Z</time>
      </trkpt>
      <trkpt lat="44.28215" lon="3.69624">
        <ele>661.191</ele>
        <time>2011-09-17T10:31:57Z</time>
      </trkpt>
      <trkpt lat="44.28215" lon="3.69624">
        <ele>660.452</ele>
        <time>2011-09-17T10:32:07Z</time>
      </trkpt>
      <trkpt lat="44.28214" lon="3.69624">
        <ele>660.62</ele>
        <time>2011-09-17T10:32:17Z</time>
      </trkpt>
      <trkpt lat="44.28214" lon="3.69624">
        <ele>660.883</ele>
        <time>2011-09-17T10:32:27Z</time>
      </trkpt>
      <trkpt lat="44.28214" lon="3.69624">
        <ele>660.647</ele>
        <time>2011-09-17T10:32:37Z</time>
      </trkpt>
      <trkpt lat="44.28215" lon="3.69622">
        <ele>660.033</ele>
        <time>2011-09-17T10:32:47Z</time>
      </trkpt>
      <trkpt lat="44.28215" lon="3.69621">
        <ele>660.496</ele>
        <time>2011-09-17T10:32:57Z</time>
      </trkpt>
      <trkpt lat="44.28215" lon="3.69621">
        <ele>660.962</ele>
        <time>2011-09-17T10:33:07Z</time>
      </trkpt>
      <trkpt lat="44.28215" lon="3.69619">
        <ele>660.742</ele>
        <time>2011-09-17T10:33:17Z</time>
      </trkpt>
      <trkpt lat="44.28216" lon="3.69617">
        <ele>660.433</ele>
        <time>2011-09-17T10:33:27Z</time>
      </trkpt>
      <trkpt lat="44.28216" lon="3.69616">
        <ele>661.159</ele>
        <time>2011-09-17T10:33:37Z</time>
      </trkpt>
      <trkpt lat="44.28216" lon="3.69616">
        <ele>659.794</ele>
        <time>2011-09-17T10:33:47Z</time>
      </trkpt>
      <trkpt lat="44.28217" lon="3.69619">
        <ele>660.321</ele>
        <time>2011-09-17T10:33:57Z</time>
      </trkpt>
      <trkpt lat="44.28217" lon="3.69626">
        <ele>661.005</ele>
        <time>2011-09-17T10:34:07Z</time>
      </trkpt>
      <trkpt lat="44.28218" lon="3.69627">
        <ele>660.113</ele>
        <time>2011-09-17T10:34:17Z</time>
      </trkpt>
      <trkpt lat="44.28219" lon="3.69628">
        <ele>660.223</ele>
        <time>2011-09-17T10:34:27Z</time>
      </trkpt>
      <trkpt lat="44.28219" lon="3.69628">
        <ele>661.099</ele>
        <time>2011-09-17T10:34:37Z</time>
      </trkpt>
      <trkpt lat="44.2822" lon="3.69629">
        <ele>660.899</ele>
        <time>2011-09-17T10:34:47Z</time>
      </trkpt>
      <trkpt lat="44.28219" lon="3.69629">
        <ele>661.003</ele>
        <time>2011-09-17T10:34:57Z</time>
      </trkpt>
      <trkpt lat="44.28219" lon="3.69629">
        <ele>661.573</ele>
        <time>2011-09-17T10:35:07Z</time>
      </trkpt>
      <trkpt lat="44.28218" lon="3.69628">
        <ele>661.2</ele>
        <time>2011-09-17T10:35:17Z</time>
      </trkpt>
      <trkpt lat="44.28218" lon="3.69628">
        <ele>660.599</ele>
        <time>2011-09-17T10:35:27Z</time>
      </trkpt>
      <trkpt lat="44.28218" lon="3.69628">
        <ele>660.738</ele>
        <time>2011-09-17T10:35:37Z</time>
      </trkpt>
      <trkpt lat="44.28218" lon="3.69628">
        <ele>660.693</ele>
        <time>2011-09-17T10:35:47Z</time>
      </trkpt>
      <trkpt lat="44.28219" lon="3.69627">
        <ele>660.352</ele>
        <time>2011-09-17T10:35:57Z</time>
      </trkpt>
      <trkpt lat="44.28219" lon="3.69627">
        <ele>660.197</ele>
        <time>2011-09-17T10:36:07Z</time>
      </trkpt>
      <trkpt lat="44.28219" lon="3.69626">
        <ele>661.07</ele>
        <time>2011-09-17T10:36:17Z</time>
      </trkpt>
      <trkpt lat="44.2822" lon="3.69624">
        <ele>660.94</ele>
        <time>2011-09-17T10:36:27Z</time>
      </trkpt>
      <trkpt lat="44.28221" lon="3.69622">
        <ele>661.126</ele>
        <time>2011-09-17T10:36:37Z</time>
      </trkpt>
      <trkpt lat="44.28222" lon="3.69619">
        <ele>661.678</ele>
        <time>2011-09-17T10:36:47Z</time>
      </trkpt>
      <trkpt lat="44.28223" lon="3.69617">
        <ele>661.893</ele>
        <time>2011-09-17T10:36:57Z</time>
      </trkpt>
      <trkpt lat="44.28223" lon="3.69617">
        <ele>661.44</ele>
        <time>2011-09-17T10:37:07Z</time>
      </trkpt>
      <trkpt lat="44.28224" lon="3.69617">
        <ele>661.659</ele>
        <time>2011-09-17T10:37:17Z</time>
      </trkpt>
      <trkpt lat="44.28225" lon="3.69617">
        <ele>661.401</ele>
        <time>2011-09-17T10:37:27Z</time>
      </trkpt>
      <trkpt lat="44.28226" lon="3.69616">
        <ele>661.202</ele>
        <time>2011-09-17T10:37:37Z</time>
      </trkpt>
      <trkpt lat="44.28226" lon="3.69615">
        <ele>661.301</ele>
        <time>2011-09-17T10:37:47Z</time>
      </trkpt>
      <trkpt lat="44.28226" lon="3.69614">
        <ele>661.351</ele>
        <time>2011-09-17T10:37:57Z</time>
      </trkpt>
      <trkpt lat="44.28225" lon="3.69614">
        <ele>661.929</ele>
        <time>2011-09-17T10:38:07Z</time>
      </trkpt>
      <trkpt lat="44.28225" lon="3.69614">
        <ele>661.927</ele>
        <time>2011-09-17T10:38:17Z</time>
      </trkpt>
      <trkpt lat="44.28225" lon="3.69614">
        <ele>661.509</ele>
        <time>2011-09-17T10:38:27Z</time>
      </trkpt>
      <trkpt lat="44.28225" lon="3.69615">
        <ele>660.996</ele>
        <time>2011-09-17T10:38:37Z</time>
      </trkpt>
      <trkpt lat="44.28218" lon="3.69621">
        <ele>661.385</ele>
        <time>2011-09-17T10:38:47Z</time>
      </trkpt>
      <trkpt lat="44.28208" lon="3.69632">
        <ele>661.307</ele>
        <time>2011-09-17T10:38:57Z</time>
      </trkpt>
      <trkpt lat="44.28199" lon="3.69641">
        <ele>661.703</ele>
        <time>2011-09-17T10:39:07Z</time>
      </trkpt>
      <trkpt lat="44.28187" lon="3.69651">
        <ele>661.386</ele>
        <time>2011-09-17T10:39:17Z</time>
      </trkpt>
      <trkpt lat="44.28178" lon="3.69655">
        <ele>661.47</ele>
        <time>2011-09-17T10:39:27Z</time>
      </trkpt>
      <trkpt lat="44.28171" lon="3.69656">
        <ele>661.388</ele>
        <time>2011-09-17T10:39:37Z</time>
      </trkpt>
      <trkpt lat="44.28153" lon="3.69658">
        <ele>661.197</ele>
        <time>2011-09-17T10:39:47Z</time>
      </trkpt>
      <trkpt lat="44.28141" lon="3.69663">
        <ele>661.052</ele>
        <time>2011-09-17T10:39:57Z</time>
      </trkpt>
      <trkpt lat="44.28127" lon="3.69664">
        <ele>661.568</ele>
        <time>2011-09-17T10:40:07Z</time>
      </trkpt>
      <trkpt lat="44.28117" lon="3.69662">
        <ele>661.666</ele>
        <time>2011-09-17T10:40:17Z</time>
      </trkpt>
      <trkpt lat="44.28109" lon="3.69662">
        <ele>661.137</ele>
        <time>2011-09-17T10:40:27Z</time>
      </trkpt>
      <trkpt lat="44.28099" lon="3.69669">
        <ele>661.332</ele>
        <time>2011-09-17T10:40:37Z</time>
      </trkpt>
      <trkpt lat="44.28092" lon="3.69668">
        <ele>661.392</ele>
        <time>2011-09-17T10:40:47Z</time>
      </trkpt>
      <trkpt lat="44.28077" lon="3.6967">
        <ele>661.649</ele>
        <time>2011-09-17T10:40:57Z</time>
      </trkpt>
      <trkpt lat="44.2807" lon="3.69673">
        <ele>661.713</ele>
        <time>2011-09-17T10:41:07Z</time>
      </trkpt>
      <trkpt lat="44.28058" lon="3.69678">
        <ele>662.217</ele>
        <time>2011-09-17T10:41:17Z</time>
      </trkpt>
      <trkpt lat="44.28036" lon="3.69686">
        <ele>662.395</ele>
        <time>2011-09-17T10:41:27Z</time>
      </trkpt>
      <trkpt lat="44.28033" lon="3.69691">
        <ele>661.698</ele>
        <time>2011-09-17T10:41:37Z</time>
      </trkpt>
      <trkpt lat="44.28025" lon="3.69698">
        <ele>661.625</ele>
        <time>2011-09-17T10:41:47Z</time>
      </trkpt>
      <trkpt lat="44.28015" lon="3.69708">
        <ele>661.054</ele>
        <time>2011-09-17T10:41:57Z</time>
      </trkpt>
      <trkpt lat="44.2801" lon="3.69719">
        <ele>660.976</ele>
        <time>2011-09-17T10:42:07Z</time>
      </trkpt>
      <trkpt lat="44.28001" lon="3.69733">
        <ele>661.177</ele>
        <time>2011-09-17T10:42:17Z</time>
      </trkpt>
      <trkpt lat="44.27995" lon="3.69746">
        <ele>661.275</ele>
        <time>2011-09-17T10:42:27Z</time>
      </trkpt>
      <trkpt lat="44.27988" lon="3.69761">
        <ele>661.779</ele>
        <time>2011-09-17T10:42:37Z</time>
      </trkpt>
      <trkpt lat="44.27986" lon="3.69779">
        <ele>661.239</ele>
        <time>2011-09-17T10:42:47Z</time>
      </trkpt>
      <trkpt lat="44.27987" lon="3.69795">
        <ele>661.196</ele>
        <time>2011-09-17T10:42:57Z</time>
      </trkpt>
      <trkpt lat="44.27989" lon="3.6981">
        <ele>660.885</ele>
        <time>2011-09-17T10:43:07Z</time>
      </trkpt>
      <trkpt lat="44.27988" lon="3.69828">
        <ele>660.947</ele>
        <time>2011-09-17T10:43:17Z</time>
      </trkpt>
      <trkpt lat="44.27991" lon="3.69843">
        <ele>661.486</ele>
        <time>2011-09-17T10:43:27Z</time>
      </trkpt>
      <trkpt lat="44.2799" lon="3.69861">
        <ele>661.805</ele>
        <time>2011-09-17T10:43:37Z</time>
      </trkpt>
      <trkpt lat="44.27991" lon="3.69878">
        <ele>662.362</ele>
        <time>2011-09-17T10:43:47Z</time>
      </trkpt>
      <trkpt lat="44.27995" lon="3.69894">
        <ele>661.697</ele>
        <time>2011-09-17T10:43:57Z</time>
      </trkpt>
      <trkpt lat="44.27995" lon="3.69913">
        <ele>661.432</ele>
        <time>2011-09-17T10:44:07Z</time>
      </trkpt>
      <trkpt lat="44.27995" lon="3.69928">
        <ele>661.895</ele>
        <time>2011-09-17T10:44:17Z</time>
      </trkpt>
      <trkpt lat="44.27991" lon="3.69946">
        <ele>661.654</ele>
        <time>2011-09-17T10:44:27Z</time>
      </trkpt>
      <trkpt lat="44.27989" lon="3.69963">
        <ele>661.815</ele>
        <time>2011-09-17T10:44:37Z</time>
      </trkpt>
      <trkpt lat="44.27985" lon="3.69977">
        <ele>661.916</ele>
        <time>2011-09-17T10:44:47Z</time>
      </trkpt>
      <trkpt lat="44.27989" lon="3.69993">
        <ele>661.953</ele>
        <time>2011-09-17T10:44:57Z</time>
      </trkpt>
      <trkpt lat="44.27988" lon="3.70013">
        <ele>662.257</ele>
        <time>2011-09-17T10:45:07Z</time>
      </trkpt>
      <trkpt lat="44.27992" lon="3.70029">
        <ele>662.085</ele>
        <time>2011-09-17T10:45:17Z</time>
      </trkpt>
      <trkpt lat="44.27996" lon="3.70046">
        <ele>662.249</ele>
        <time>2011-09-17T10:45:27Z</time>
      </trkpt>
      <trkpt lat="44.27998" lon="3.70064">
        <ele>662.632</ele>
        <time>2011-09-17T10:45:37Z</time>
      </trkpt>
      <trkpt lat="44.27996" lon="3.70082">
        <ele>662.682</ele>
        <time>2011-09-17T10:45:47Z</time>
      </trkpt>
      <trkpt lat="44.27993" lon="3.70099">
        <ele>663.039</ele>
        <time>2011-09-17T10:45:57Z</time>
      </trkpt>
      <trkpt lat="44.27996" lon="3.70116">
        <ele>663.263</ele>
        <time>2011-09-17T10:46:07Z</time>
      </trkpt>
      <trkpt lat="44.27994" lon="3.70132">
        <ele>663.158</ele>
        <time>2011-09-17T10:46:17Z</time>
      </trkpt>
      <trkpt lat="44.27988" lon="3.70148">
        <ele>663.393</ele>
        <time>2011-09-17T10:46:27Z</time>
      </trkpt>
      <trkpt lat="44.27984" lon="3.70168">
        <ele>663.615</ele>
        <time>2011-09-17T10:46:37Z</time>
      </trkpt>
      <trkpt lat="44.27981" lon="3.70183">
        <ele>664.056</ele>
        <time>2011-09-17T10:46:47Z</time>
      </trkpt>
      <trkpt lat="44.27981" lon="3.70197">
        <ele>663.94</ele>
        <time>2011-09-17T10:46:57Z</time>
      </trkpt>
      <trkpt lat="44.27976" lon="3.70213">
        <ele>664.378</ele>
        <time>2011-09-17T10:47:07Z</time>
      </trkpt>
      <trkpt lat="44.27969" lon="3.70226">
        <ele>664.534</ele>
        <time>2011-09-17T10:47:17Z</time>
      </trkpt>
      <trkpt lat="44.27967" lon="3.70239">
        <ele>664.976</ele>
        <time>2011-09-17T10:47:27Z</time>
      </trkpt>
      <trkpt lat="44.2796" lon="3.70254">
        <ele>665.237</ele>
        <time>2011-09-17T10:47:37Z</time>
      </trkpt>
      <trkpt lat="44.27954" lon="3.70271">
        <ele>665.8</ele>
        <time>2011-09-17T10:47:47Z</time>
      </trkpt>
      <trkpt lat="44.27949" lon="3.70287">
        <ele>666.178</ele>
        <time>2011-09-17T10:47:57Z</time>
      </trkpt>
      <trkpt lat="44.27945" lon="3.703">
        <ele>665.797</ele>
        <time>2011-09-17T10:48:07Z</time>
      </trkpt>
      <trkpt lat="44.2794" lon="3.70319">
        <ele>666.397</ele>
        <time>2011-09-17T10:48:17Z</time>
      </trkpt>
      <trkpt lat="44.2793" lon="3.70333">
        <ele>666.432</ele>
        <time>2011-09-17T10:48:27Z</time>
      </trkpt>
      <trkpt lat="44.27924" lon="3.70351">
        <ele>666.693</ele>
        <time>2011-09-17T10:48:37Z</time>
      </trkpt>
      <trkpt lat="44.27919" lon="3.70368">
        <ele>667.026</ele>
        <time>2011-09-17T10:48:47Z</time>
      </trkpt>
      <trkpt lat="44.27914" lon="3.70383">
        <ele>667.367</ele>
        <time>2011-09-17T10:48:57Z</time>
      </trkpt>
      <trkpt lat="44.27907" lon="3.70398">
        <ele>667.732</ele>
        <time>2011-09-17T10:49:07Z</time>
      </trkpt>
      <trkpt lat="44.27903" lon="3.70416">
        <ele>668.569</ele>
        <time>2011-09-17T10:49:17Z</time>
      </trkpt>
      <trkpt lat="44.279" lon="3.7043">
        <ele>667.824</ele>
        <time>2011-09-17T10:49:27Z</time>
      </trkpt>
      <trkpt lat="44.27891" lon="3.70448">
        <ele>668.752</ele>
        <time>2011-09-17T10:49:37Z</time>
      </trkpt>
      <trkpt lat="44.27889" lon="3.70469">
        <ele>668.907</ele>
        <time>2011-09-17T10:49:47Z</time>
      </trkpt>
      <trkpt lat="44.27886" lon="3.70487">
        <ele>669.256</ele>
        <time>2011-09-17T10:49:57Z</time>
      </trkpt>
      <trkpt lat="44.27883" lon="3.70504">
        <ele>669.539</ele>
        <time>2011-09-17T10:50:07Z</time>
      </trkpt>
      <trkpt lat="44.27878" lon="3.70524">
        <ele>669.851</ele>
        <time>2011-09-17T10:50:17Z</time>
      </trkpt>
      <trkpt lat="44.27878" lon="3.70537">
        <ele>669.867</ele>
        <time>2011-09-17T10:50:27Z</time>
      </trkpt>
      <trkpt lat="44.27875" lon="3.70556">
        <ele>670.07</ele>
        <time>2011-09-17T10:50:37Z</time>
      </trkpt>
      <trkpt lat="44.27872" lon="3.70576">
        <ele>670.369</ele>
        <time>2011-09-17T10:50:47Z</time>
      </trkpt>
      <trkpt lat="44.27872" lon="3.70591">
        <ele>671.029</ele>
        <time>2011-09-17T10:50:57Z</time>
      </trkpt>
      <trkpt lat="44.27868" lon="3.70607">
        <ele>670.971</ele>
        <time>2011-09-17T10:51:07Z</time>
      </trkpt>
      <trkpt lat="44.27864" lon="3.70624">
        <ele>671.021</ele>
        <time>2011-09-17T10:51:17Z</time>
      </trkpt>
      <trkpt lat="44.27865" lon="3.70645">
        <ele>671.164</ele>
        <time>2011-09-17T10:51:27Z</time>
      </trkpt>
      <trkpt lat="44.27859" lon="3.70665">
        <ele>671.211</ele>
        <time>2011-09-17T10:51:37Z</time>
      </trkpt>
      <trkpt lat="44.27852" lon="3.70681">
        <ele>671.803</ele>
        <time>2011-09-17T10:51:47Z</time>
      </trkpt>
      <trkpt lat="44.27846" lon="3.70696">
        <ele>671.716</ele>
        <time>2011-09-17T10:51:57Z</time>
      </trkpt>
      <trkpt lat="44.27836" lon="3.70711">
        <ele>671.832</ele>
        <time>2011-09-17T10:52:07Z</time>
      </trkpt>
      <trkpt lat="44.27823" lon="3.70722">
        <ele>672.163</ele>
        <time>2011-09-17T10:52:17Z</time>
      </trkpt>
      <trkpt lat="44.27808" lon="3.70734">
        <ele>672.58</ele>
        <time>2011-09-17T10:52:27Z</time>
      </trkpt>
      <trkpt lat="44.27796" lon="3.70745">
        <ele>672.34</ele>
        <time>2011-09-17T10:52:37Z</time>
      </trkpt>
      <trkpt lat="44.27791" lon="3.70752">
        <ele>672.942</ele>
        <time>2011-09-17T10:52:47Z</time>
      </trkpt>
      <trkpt lat="44.27778" lon="3.70763">
        <ele>673.806</ele>
        <time>2011-09-17T10:52:57Z</time>
      </trkpt>
      <trkpt lat="44.27773" lon="3.70778">
        <ele>673.587</ele>
        <time>2011-09-17T10:53:07Z</time>
      </trkpt>
      <trkpt lat="44.27764" lon="3.70791">
        <ele>674.314</ele>
        <time>2011-09-17T10:53:17Z</time>
      </trkpt>
      <trkpt lat="44.27766" lon="3.70806">
        <ele>674.816</ele>
        <time>2011-09-17T10:53:27Z</time>
      </trkpt>
      <trkpt lat="44.27759" lon="3.70825">
        <ele>675.373</ele>
        <time>2011-09-17T10:53:37Z</time>
      </trkpt>
      <trkpt lat="44.27751" lon="3.70843">
        <ele>675.186</ele>
        <time>2011-09-17T10:53:47Z</time>
      </trkpt>
      <trkpt lat="44.27744" lon="3.70866">
        <ele>675.643</ele>
        <time>2011-09-17T10:53:57Z</time>
      </trkpt>
      <trkpt lat="44.27747" lon="3.70882">
        <ele>675.622</ele>
        <time>2011-09-17T10:54:07Z</time>
      </trkpt>
      <trkpt lat="44.27762" lon="3.70897">
        <ele>675.267</ele>
        <time>2011-09-17T10:54:17Z</time>
      </trkpt>
      <trkpt lat="44.27768" lon="3.70911">
        <ele>675.68</ele>
        <time>2011-09-17T10:54:27Z</time>
      </trkpt>
      <trkpt lat="44.27771" lon="3.70931">
        <ele>675.751</ele>
        <time>2011-09-17T10:54:37Z</time>
      </trkpt>
      <trkpt lat="44.27779" lon="3.70945">
        <ele>676.05</ele>
        <time>2011-09-17T10:54:47Z</time>
      </trkpt>
      <trkpt lat="44.27792" lon="3.70955">
        <ele>676.11</ele>
        <time>2011-09-17T10:54:57Z</time>
      </trkpt>
      <trkpt lat="44.27798" lon="3.70966">
        <ele>676.042</ele>
        <time>2011-09-17T10:55:07Z</time>
      </trkpt>
      <trkpt lat="44.27809" lon="3.70978">
        <ele>675.297</ele>
        <time>2011-09-17T10:55:17Z</time>
      </trkpt>
      <trkpt lat="44.2782" lon="3.70991">
        <ele>675.566</ele>
        <time>2011-09-17T10:55:27Z</time>
      </trkpt>
      <trkpt lat="44.27827" lon="3.71006">
        <ele>676.184</ele>
        <time>2011-09-17T10:55:37Z</time>
      </trkpt>
      <trkpt lat="44.27834" lon="3.71021">
        <ele>676.018</ele>
        <time>2011-09-17T10:55:47Z</time>
      </trkpt>
      <trkpt lat="44.27836" lon="3.71038">
        <ele>676.211</ele>
        <time>2011-09-17T10:55:57Z</time>
      </trkpt>
      <trkpt lat="44.27835" lon="3.71055">
        <ele>676.332</ele>
        <time>2011-09-17T10:56:07Z</time>
      </trkpt>
      <trkpt lat="44.27838" lon="3.7107">
        <ele>676.615</ele>
        <time>2011-09-17T10:56:17Z</time>
      </trkpt>
      <trkpt lat="44.27836" lon="3.71088">
        <ele>676.898</ele>
        <time>2011-09-17T10:56:27Z</time>
      </trkpt>
      <trkpt lat="44.27837" lon="3.71104">
        <ele>676.903</ele>
        <time>2011-09-17T10:56:37Z</time>
      </trkpt>
      <trkpt lat="44.27835" lon="3.71123">
        <ele>677.04</ele>
        <time>2011-09-17T10:56:47Z</time>
      </trkpt>
      <trkpt lat="44.2784" lon="3.71141">
        <ele>676.969</ele>
        <time>2011-09-17T10:56:57Z</time>
      </trkpt>
      <trkpt lat="44.27845" lon="3.71161">
        <ele>676.607</ele>
        <time>2011-09-17T10:57:07Z</time>
      </trkpt>
      <trkpt lat="44.27838" lon="3.71186">
        <ele>676.922</ele>
        <time>2011-09-17T10:57:17Z</time>
      </trkpt>
      <trkpt lat="44.27842" lon="3.71205">
        <ele>676.565</ele>
        <time>2011-09-17T10:57:27Z</time>
      </trkpt>
      <trkpt lat="44.27842" lon="3.71222">
        <ele>676.768</ele>
        <time>2011-09-17T10:57:37Z</time>
      </trkpt>
      <trkpt lat="44.27835" lon="3.71235">
        <ele>676.969</ele>
        <time>2011-09-17T10:57:47Z</time>
      </trkpt>
      <trkpt lat="44.27839" lon="3.71241">
        <ele>676.734</ele>
        <time>2011-09-17T10:57:57Z</time>
      </trkpt>
      <trkpt lat="44.27827" lon="3.71261">
        <ele>677.054</ele>
        <time>2011-09-17T10:58:07Z</time>
      </trkpt>
      <trkpt lat="44.27817" lon="3.71275">
        <ele>676.808</ele>
        <time>2011-09-17T10:58:17Z</time>
      </trkpt>
      <trkpt lat="44.2781" lon="3.71289">
        <ele>676.467</ele>
        <time>2011-09-17T10:58:27Z</time>
      </trkpt>
      <trkpt lat="44.27803" lon="3.713">
        <ele>676.657</ele>
        <time>2011-09-17T10:58:37Z</time>
      </trkpt>
      <trkpt lat="44.27794" lon="3.71306">
        <ele>676.848</ele>
        <time>2011-09-17T10:58:47Z</time>
      </trkpt>
      <trkpt lat="44.2779" lon="3.71314">
        <ele>676.776</ele>
        <time>2011-09-17T10:58:57Z</time>
      </trkpt>
      <trkpt lat="44.27784" lon="3.7133">
        <ele>676.734</ele>
        <time>2011-09-17T10:59:07Z</time>
      </trkpt>
      <trkpt lat="44.27778" lon="3.71353">
        <ele>676.768</ele>
        <time>2011-09-17T10:59:17Z</time>
      </trkpt>
      <trkpt lat="44.27765" lon="3.71371">
        <ele>676.853</ele>
        <time>2011-09-17T10:59:27Z</time>
      </trkpt>
      <trkpt lat="44.27751" lon="3.71389">
        <ele>676.89</ele>
        <time>2011-09-17T10:59:37Z</time>
      </trkpt>
      <trkpt lat="44.27738" lon="3.71407">
        <ele>677.202</ele>
        <time>2011-09-17T10:59:47Z</time>
      </trkpt>
    </trkseg>
  </trk>
</gpx>